Time;durP1;ratioP1;P1;durP2;ratioP2;P2;SDS_P1;SDS_P2;PMS_P1;PMS_P2;Temp;Humidity;BMP_temperature;BMP_pressure;BME280_temperature;BME280_humidity;BME280_pressure;Samples;Min_cycle;Max_cycle;Signal;HPM_P1;HPM_P2
2022/11/08 00:02:27;;;;;;;17.35;4.88;;;12.40;99.90;;;;;;6186519;23;20025;-78
2022/11/08 00:04:53;;;;;;;15.43;5.25;;;12.40;99.90;;;;;;6186528;23;20381;-78
2022/11/08 00:15:37;;;;;;;20.65;5.18;;;12.40;99.90;;;;;;6159803;23;20024;-78
2022/11/08 00:18:04;;;;;;;19.20;5.53;;;12.40;99.90;;;;;;6159796;23;20020;-78
2022/11/08 00:20:30;;;;;;;22.17;5.60;;;12.50;99.90;;;;;;6186449;23;20013;-78
2022/11/08 00:22:56;;;;;;;17.17;4.82;;;12.50;99.90;;;;;;6159797;23;20055;-78
2022/11/08 00:25:21;;;;;;;17.10;4.68;;;12.50;99.90;;;;;;6186378;23;20033;-78
2022/11/08 00:27:47;;;;;;;18.20;5.13;;;12.50;99.90;;;;;;6186027;23;20021;-79
2022/11/08 00:30:13;;;;;;;14.95;4.70;;;12.50;99.90;;;;;;6186019;23;20029;-78
2022/11/08 00:32:38;;;;;;;23.38;5.60;;;12.50;99.90;;;;;;6159689;23;20497;-78
2022/11/08 00:35:04;;;;;;;16.92;4.00;;;12.50;99.90;;;;;;6186312;23;20100;-78
2022/11/08 00:37:30;;;;;;;16.58;4.88;;;12.50;99.90;;;;;;6159709;23;20063;-78
2022/11/08 00:39:55;;;;;;;18.13;5.70;;;12.50;99.90;;;;;;6186160;23;20013;-78
2022/11/08 00:42:21;;;;;;;11.85;4.40;;;12.50;99.90;;;;;;6186164;23;20148;-78
2022/11/08 00:44:47;;;;;;;20.42;4.78;;;12.50;99.90;;;;;;6159750;23;20024;-78
2022/11/08 00:47:12;;;;;;;19.00;6.07;;;12.50;99.90;;;;;;6159667;23;20017;-77
2022/11/08 00:49:38;;;;;;;20.17;6.43;;;12.60;99.90;;;;;;6186158;23;20036;-78
2022/11/08 00:52:04;;;;;;;17.67;5.03;;;12.50;99.90;;;;;;6159567;23;20096;-78
2022/11/08 00:54:29;;;;;;;22.20;4.70;;;12.50;99.90;;;;;;6186226;23;20024;-78
2022/11/08 00:56:55;;;;;;;18.02;4.82;;;12.50;99.90;;;;;;6159549;23;20385;-78
2022/11/08 00:59:20;;;;;;;15.77;4.43;;;12.50;99.90;;;;;;6159607;23;20064;-78
2022/11/08 01:01:46;;;;;;;22.15;5.00;;;12.50;99.90;;;;;;6185825;23;20017;-78
2022/11/08 01:04:15;;;;;;;18.77;4.63;;;12.50;99.90;;;;;;6185903;23;20028;-78
2022/11/08 01:06:41;;;;;;;18.67;4.97;;;12.50;99.90;;;;;;6159479;23;20093;-78
2022/11/08 01:09:07;;;;;;;16.48;5.03;;;12.50;99.90;;;;;;6185917;23;20052;-78
2022/11/08 01:11:33;;;;;;;20.30;4.72;;;12.60;99.90;;;;;;6159455;23;20346;-79
2022/11/08 01:14:00;;;;;;;20.73;5.45;;;12.50;99.90;;;;;;6159438;23;20073;-78
2022/11/08 01:16:28;;;;;;;15.27;5.53;;;12.60;99.90;;;;;;6159507;23;20017;-79
2022/11/08 01:18:55;;;;;;;20.33;5.05;;;12.50;99.90;;;;;;6159328;23;20442;-78
2022/11/08 01:21:40;;;;;;;17.67;4.25;;;12.60;99.90;;;;;;6159365;23;20036;-78
2022/11/08 01:24:06;;;;;;;14.82;4.38;;;12.60;99.90;;;;;;6158679;23;20036;-78
2022/11/08 01:26:32;;;;;;;20.13;5.03;;;12.60;99.90;;;;;;6159326;23;20017;-78
2022/11/08 01:28:58;;;;;;;22.90;4.57;;;12.60;99.90;;;;;;6186075;23;20480;-78
2022/11/08 01:31:27;;;;;;;18.33;5.07;;;12.60;99.90;;;;;;6159349;23;20393;-78
2022/11/08 01:33:53;;;;;;;13.70;5.22;;;12.50;99.90;;;;;;6159350;23;20017;-78
2022/11/08 01:36:24;;;;;;;11.23;4.47;;;12.50;99.90;;;;;;6185722;23;20028;-78
2022/11/08 01:38:50;;;;;;;24.42;4.50;;;12.50;99.90;;;;;;6186073;23;20052;-78
2022/11/08 01:41:18;;;;;;;16.92;5.25;;;12.50;99.90;;;;;;6160407;23;20055;-78
2022/11/08 01:43:46;;;;;;;15.25;4.30;;;12.50;99.90;;;;;;6160942;23;20092;-78
2022/11/08 01:46:29;;;;;;;15.70;4.20;;;12.50;99.90;;;;;;6161076;23;20017;-78
2022/11/08 01:49:17;;;;;;;24.45;4.88;;;12.50;99.90;;;;;;6161168;23;20017;-78
2022/11/08 01:52:07;;;;;;;13.52;4.47;;;12.50;99.90;;;;;;6161150;23;20017;-80
2022/11/08 01:54:40;;;;;;;18.50;4.50;;;12.50;99.90;;;;;;6161091;23;20107;-78
2022/11/08 01:57:09;;;;;;;17.40;4.93;;;12.50;99.90;;;;;;6161037;23;20381;-78
2022/11/08 01:59:40;;;;;;;15.73;4.28;;;12.50;99.90;;;;;;6160951;23;20024;-78
2022/11/08 02:02:07;;;;;;;23.27;5.15;;;12.50;99.90;;;;;;6161125;23;20025;-78
2022/11/08 02:04:32;;;;;;;14.82;3.95;;;12.50;99.90;;;;;;6187659;23;20021;-78
2022/11/08 02:06:59;;;;;;;16.63;4.70;;;12.50;99.90;;;;;;6160972;23;20063;-78
2022/11/08 02:09:26;;;;;;;16.65;4.38;;;12.30;99.90;;;;;;6160825;23;20017;-78
2022/11/08 02:11:52;;;;;;;15.48;4.50;;;12.30;99.90;;;;;;6160896;23;20025;-78
2022/11/08 02:14:18;;;;;;;15.77;4.88;;;12.30;99.90;;;;;;6187600;23;20041;-79
2022/11/08 02:16:44;;;;;;;13.38;4.03;;;12.30;99.90;;;;;;6160845;23;20345;-78
2022/11/08 02:19:21;;;;;;;14.45;4.07;;;12.20;99.90;;;;;;6160917;23;20103;-78
2022/11/08 02:21:57;;;;;;;16.40;4.72;;;12.20;99.90;;;;;;6160848;23;20017;-78
2022/11/08 02:24:22;;;;;;;17.85;4.60;;;12.20;99.90;;;;;;6160863;23;20095;-78
2022/11/08 02:26:51;;;;;;;19.13;4.28;;;12.10;99.90;;;;;;6160777;23;20075;-78
2022/11/08 02:29:32;;;;;;;12.40;4.05;;;12.10;99.90;;;;;;6187296;23;20040;-78
2022/11/08 02:31:59;;;;;;;13.60;3.85;;;12.10;99.90;;;;;;6160594;23;20048;-78
2022/11/08 02:34:30;;;;;;;14.18;4.38;;;12.10;99.90;;;;;;6187276;23;20041;-78
2022/11/08 02:36:56;;;;;;;11.98;4.28;;;12.00;99.90;;;;;;6160632;23;20088;-78
2022/11/08 02:39:22;;;;;;;17.95;4.53;;;12.10;99.90;;;;;;6187279;23;20107;-78
2022/11/08 02:41:48;;;;;;;16.92;3.97;;;12.00;99.90;;;;;;6187293;23;20024;-78
2022/11/08 03:11:23;;;;;;;12.43;4.78;;;11.60;99.90;;;;;;6153548;23;20028;-78
2022/11/08 03:13:48;;;;;;;11.10;4.05;;;11.60;99.90;;;;;;6155109;23;20026;-78
2022/11/08 03:16:14;;;;;;;14.43;4.00;;;11.60;99.90;;;;;;6130585;23;20346;-78
2022/11/08 03:18:40;;;;;;;19.33;4.95;;;11.60;99.90;;;;;;6157175;23;20382;-78
2022/11/08 03:21:06;;;;;;;17.38;4.13;;;11.60;99.90;;;;;;6131409;23;20053;-78
2022/11/08 03:23:31;;;;;;;9.45;3.33;;;11.50;99.90;;;;;;6156790;23;20045;-79
2022/11/08 03:26:03;;;;;;;14.25;3.90;;;11.50;99.90;;;;;;6130676;23;20021;-78
2022/11/08 03:28:29;;;;;;;18.23;4.53;;;11.50;99.90;;;;;;6130652;23;20053;-79
2022/11/08 03:30:55;;;;;;;12.25;3.30;;;11.50;99.90;;;;;;6130453;23;20018;-78
2022/11/08 03:33:20;;;;;;;17.30;4.65;;;11.50;99.90;;;;;;6156724;23;20029;-78
2022/11/08 03:35:47;;;;;;;16.25;4.38;;;11.50;99.90;;;;;;6130542;23;20092;-78
2022/11/08 03:38:13;;;;;;;9.95;3.58;;;11.40;99.90;;;;;;6156966;23;20045;-78
2022/11/08 03:40:39;;;;;;;10.63;3.70;;;11.40;99.90;;;;;;6130332;23;20048;-78
2022/11/08 03:43:05;;;;;;;12.82;4.00;;;11.40;99.90;;;;;;6130526;23;20342;-78
2022/11/08 03:45:31;;;;;;;14.05;4.10;;;11.50;99.90;;;;;;6156612;23;20123;-78
2022/11/08 03:47:56;;;;;;;14.10;3.72;;;11.30;99.90;;;;;;6130373;23;20021;-78
2022/11/08 03:50:22;;;;;;;15.70;4.70;;;11.40;99.90;;;;;;6130389;23;20044;-78
2022/11/08 03:52:50;;;;;;;14.50;4.13;;;11.40;99.90;;;;;;6130508;23;20014;-78
2022/11/08 03:55:17;;;;;;;16.92;3.65;;;11.30;99.90;;;;;;6130502;23;20025;-78
2022/11/08 03:57:45;;;;;;;17.60;4.22;;;11.30;99.90;;;;;;6130441;23;20045;-78
2022/11/08 04:00:13;;;;;;;14.90;3.47;;;11.30;99.90;;;;;;6130441;23;20022;-78
2022/11/08 04:02:39;;;;;;;16.77;3.75;;;11.30;99.90;;;;;;6130396;23;20017;-78
2022/11/08 04:05:07;;;;;;;13.20;3.45;;;11.30;99.90;;;;;;6155934;23;20453;-77
2022/11/08 04:07:33;;;;;;;8.70;3.25;;;11.20;99.90;;;;;;6130250;23;20496;-78
2022/11/08 04:09:58;;;;;;;11.55;3.97;;;11.30;99.90;;;;;;6130003;23;20017;-78
2022/11/08 04:15:18;;;;;;;15.30;3.88;;;11.20;99.90;;;;;;6086086;23;20057;-78
2022/11/08 04:23:16;;;;;;;12.45;3.90;;;11.20;99.90;;;;;;6130250;23;20028;-77
2022/11/08 04:25:42;;;;;;;15.15;3.95;;;11.20;99.90;;;;;;6130027;23;20013;-78
2022/11/08 04:28:08;;;;;;;10.45;3.35;;;11.20;99.90;;;;;;6130101;23;20064;-77
2022/11/08 04:30:34;;;;;;;14.52;3.80;;;11.10;99.90;;;;;;6130107;23;20088;-78
2022/11/08 04:33:01;;;;;;;13.35;3.80;;;11.10;99.90;;;;;;6130044;23;20025;-78
2022/11/08 04:35:28;;;;;;;14.13;3.70;;;11.10;99.90;;;;;;6130041;23;20021;-78
2022/11/08 04:38:01;;;;;;;14.85;3.72;;;11.10;99.90;;;;;;6130104;23;20025;-78
2022/11/08 04:40:29;;;;;;;20.58;3.47;;;11.10;99.90;;;;;;6130167;23;20014;-78
2022/11/08 04:42:54;;;;;;;13.85;3.55;;;11.00;99.90;;;;;;6130042;23;20029;-79
2022/11/08 04:45:20;;;;;;;11.73;3.95;;;11.10;99.90;;;;;;6130134;23;20024;-78
2022/11/08 04:47:46;;;;;;;10.85;3.53;;;11.10;99.90;;;;;;6130038;23;20049;-79
2022/11/08 04:50:13;;;;;;;16.60;4.53;;;11.00;99.90;;;;;;6156353;23;20020;-77
2022/11/08 04:52:39;;;;;;;12.27;3.55;;;11.10;99.90;;;;;;6130049;23;20461;-78
2022/11/08 04:55:06;;;;;;;10.20;3.60;;;11.00;99.90;;;;;;6129919;23;20032;-78
2022/11/08 04:57:31;;;;;;;13.75;3.35;;;11.10;99.90;;;;;;6156440;23;20018;-78
2022/11/08 04:59:57;;;;;;;12.15;3.50;;;11.10;99.90;;;;;;6130019;23;20014;-78
2022/11/08 05:02:22;;;;;;;12.98;4.03;;;11.00;99.90;;;;;;6155948;23;20032;-78
2022/11/08 05:04:48;;;;;;;12.45;3.58;;;11.10;99.90;;;;;;6156405;23;20430;-78
2022/11/08 05:07:14;;;;;;;12.95;4.10;;;11.10;99.90;;;;;;6129960;23;20053;-79
2022/11/08 05:09:39;;;;;;;11.60;4.00;;;11.10;99.90;;;;;;6129975;23;20013;-77
2022/11/08 05:12:05;;;;;;;13.32;4.57;;;11.10;99.90;;;;;;6155824;23;20127;-76
2022/11/08 05:14:31;;;;;;;14.73;4.15;;;11.10;99.90;;;;;;6129875;23;20096;-77
2022/11/08 05:16:56;;;;;;;13.23;4.00;;;11.10;99.90;;;;;;6157785;23;20342;-77
2022/11/08 05:24:52;;;;;;;13.55;3.90;;;11.20;99.90;;;;;;6157853;23;20593;-78
2022/11/08 05:27:18;;;;;;;12.18;3.97;;;11.20;99.90;;;;;;6131753;23;20057;-78
2022/11/08 05:29:43;;;;;;;10.20;3.05;;;11.30;99.90;;;;;;6157753;23;20072;-77
2022/11/08 05:32:09;;;;;;;10.70;3.60;;;11.20;99.90;;;;;;6131645;23;20025;-78
2022/11/08 05:34:34;;;;;;;13.27;3.58;;;11.20;99.90;;;;;;6131783;23;20017;-78
2022/11/08 05:37:00;;;;;;;12.80;4.03;;;11.10;99.90;;;;;;6131672;23;20064;-77
2022/11/08 05:39:25;;;;;;;9.93;3.53;;;11.10;99.90;;;;;;6131771;23;20021;-78
2022/11/08 05:41:51;;;;;;;10.45;3.47;;;11.20;99.90;;;;;;6131663;23;20021;-78
2022/11/08 05:44:17;;;;;;;10.48;3.65;;;11.10;99.90;;;;;;6131670;23;20488;-77
2022/11/08 05:46:42;;;;;;;14.52;4.60;;;11.10;99.90;;;;;;6131728;23;20021;-78
2022/11/08 05:49:08;;;;;;;9.55;3.88;;;11.10;99.90;;;;;;6158070;23;20023;-78
2022/11/08 05:51:34;;;;;;;11.93;4.07;;;11.00;99.90;;;;;;6131520;23;20021;-78
2022/11/08 05:54:00;;;;;;;9.20;4.80;;;11.00;99.90;;;;;;6131517;23;20446;-78
2022/11/08 05:56:25;;;;;;;15.32;3.47;;;10.90;99.90;;;;;;6131541;23;20041;-78
2022/11/08 05:58:51;;;;;;;8.93;3.53;;;10.90;99.90;;;;;;6131440;23;20017;-77
2022/11/08 06:01:18;;;;;;;11.85;3.75;;;10.90;99.90;;;;;;6131585;23;20088;-78
2022/11/08 06:03:45;;;;;;;11.10;3.85;;;10.90;99.90;;;;;;6157599;23;20022;-78
2022/11/08 06:06:13;;;;;;;14.73;4.20;;;10.80;99.90;;;;;;6131400;23;20047;-78
2022/11/08 06:08:40;;;;;;;14.23;4.55;;;10.80;99.90;;;;;;6131429;23;20027;-78
2022/11/08 06:11:14;;;;;;;13.63;4.00;;;10.80;99.90;;;;;;6131251;23;20100;-77
2022/11/08 06:13:40;;;;;;;9.77;4.47;;;10.70;99.90;;;;;;6131330;23;20052;-78
2022/11/08 06:16:10;;;;;;;8.57;3.88;;;10.80;99.90;;;;;;6131215;23;20375;-77
2022/11/08 06:18:36;;;;;;;12.98;4.38;;;10.70;99.90;;;;;;6131309;23;20028;-78
2022/11/08 06:21:04;;;;;;;11.13;4.18;;;10.70;99.90;;;;;;6157338;23;20053;-77
2022/11/08 06:23:30;;;;;;;9.23;4.00;;;10.70;99.90;;;;;;6157761;23;20021;-77
2022/11/08 06:25:56;;;;;;;15.50;4.32;;;10.70;99.90;;;;;;6131253;23;20049;-78
2022/11/08 06:28:23;;;;;;;9.07;3.67;;;10.70;99.90;;;;;;6130697;23;20068;-78
2022/11/08 06:30:48;;;;;;;12.65;3.60;;;10.80;99.90;;;;;;6129951;23;20021;-78
2022/11/08 06:33:15;;;;;;;9.15;3.72;;;10.70;99.90;;;;;;6130960;23;20014;-78
2022/11/08 06:35:40;;;;;;;10.70;3.97;;;10.80;99.90;;;;;;6131148;23;20022;-78
2022/11/08 06:38:06;;;;;;;10.25;3.88;;;10.70;99.90;;;;;;6157412;23;20021;-78
2022/11/08 06:40:32;;;;;;;12.93;4.45;;;10.80;99.90;;;;;;6130907;23;20041;-78
2022/11/08 06:42:58;;;;;;;17.80;4.13;;;10.70;99.90;;;;;;6131002;23;20076;-77
2022/11/08 06:45:25;;;;;;;13.63;3.85;;;10.80;99.90;;;;;;6130798;23;20116;-77
2022/11/08 06:48:01;;;;;;;7.85;3.30;;;10.70;99.90;;;;;;6157115;23;20017;-78
2022/11/08 06:50:28;;;;;;;10.57;3.63;;;10.80;99.90;;;;;;6130910;23;20048;-78
2022/11/08 06:52:59;;;;;;;13.27;3.47;;;10.80;99.90;;;;;;6130921;23;20056;-78
2022/11/08 06:55:25;;;;;;;8.07;3.30;;;10.80;99.90;;;;;;6156963;23;20021;-77
2022/11/08 06:57:51;;;;;;;11.30;3.42;;;10.80;99.90;;;;;;6130662;23;20338;-78
2022/11/08 07:00:17;;;;;;;12.98;3.50;;;10.80;99.90;;;;;;6130754;23;20454;-78
2022/11/08 07:02:43;;;;;;;9.93;3.30;;;10.80;99.90;;;;;;6157229;23;20032;-78
2022/11/08 07:05:09;;;;;;;13.55;4.10;;;10.80;99.90;;;;;;6157287;23;20018;-78
2022/11/08 07:07:36;;;;;;;7.88;3.03;;;10.80;99.90;;;;;;6154516;23;20100;-78
2022/11/08 07:10:02;;;;;;;8.65;3.33;;;10.80;99.90;;;;;;6156709;23;20022;-78
2022/11/08 07:12:28;;;;;;;9.45;3.15;;;10.80;99.90;;;;;;6156744;23;20053;-78
2022/11/08 07:14:53;;;;;;;7.50;3.30;;;10.90;99.90;;;;;;6156814;23;20050;-78
2022/11/08 07:17:19;;;;;;;10.05;3.25;;;10.90;99.90;;;;;;6130679;23;20018;-78
2022/11/08 07:19:45;;;;;;;12.07;3.78;;;10.90;99.90;;;;;;6130655;23;20025;-78
2022/11/08 07:22:10;;;;;;;11.82;3.17;;;10.90;99.90;;;;;;6156905;23;20338;-80
2022/11/08 07:24:36;;;;;;;7.03;3.22;;;10.90;99.90;;;;;;6130605;23;20041;-79
2022/11/08 07:27:01;;;;;;;5.97;3.00;;;10.90;99.90;;;;;;6130314;23;20116;-78
2022/11/08 07:29:27;;;;;;;7.72;3.28;;;11.00;99.90;;;;;;6130600;23;20343;-78
2022/11/08 07:31:53;;;;;;;10.65;4.43;;;11.00;99.90;;;;;;6156474;23;20095;-76
2022/11/08 07:34:19;;;;;;;9.68;5.63;;;11.00;99.90;;;;;;6130489;23;20042;-76
2022/11/08 07:36:45;;;;;;;10.32;3.85;;;11.00;99.90;;;;;;6130466;23;20029;-77
2022/11/08 07:39:11;;;;;;;9.77;4.00;;;11.00;99.90;;;;;;6156749;23;20017;-78
2022/11/08 07:41:37;;;;;;;8.95;3.42;;;11.10;99.90;;;;;;6156834;23;20021;-77
2022/11/08 07:44:02;;;;;;;8.13;3.28;;;11.10;99.90;;;;;;6129383;23;20140;-76
2022/11/08 07:46:28;;;;;;;8.40;3.60;;;11.10;99.90;;;;;;6156585;23;20017;-77
2022/11/08 07:48:54;;;;;;;9.10;3.20;;;11.10;99.90;;;;;;6156489;23;20017;-77
2022/11/08 07:51:19;;;;;;;9.27;3.13;;;11.10;99.90;;;;;;6129940;23;20358;-77
2022/11/08 07:53:45;;;;;;;7.15;3.08;;;11.20;99.90;;;;;;6156199;23;20021;-77
2022/11/08 07:56:11;;;;;;;6.95;3.13;;;11.20;99.90;;;;;;6130149;23;20018;-76
2022/11/08 07:58:37;;;;;;;9.90;3.88;;;11.20;99.90;;;;;;6130047;23;20028;-77
2022/11/08 08:01:04;;;;;;;12.20;4.00;;;11.20;99.90;;;;;;6130043;23;20020;-77
2022/11/08 08:03:30;;;;;;;9.65;3.67;;;11.30;99.90;;;;;;6130115;23;20022;-76
2022/11/08 08:05:56;;;;;;;10.18;4.07;;;11.20;99.90;;;;;;6129865;23;20068;-76
2022/11/08 08:08:22;;;;;;;9.32;3.92;;;11.30;99.90;;;;;;6130004;23;20052;-76
2022/11/08 08:10:47;;;;;;;9.32;3.70;;;11.30;99.90;;;;;;6129837;23;20025;-77
2022/11/08 08:13:13;;;;;;;11.00;4.20;;;11.30;99.90;;;;;;6155949;23;20021;-77
2022/11/08 08:15:39;;;;;;;10.07;3.80;;;11.30;99.90;;;;;;6129727;23;20028;-77
2022/11/08 08:18:06;;;;;;;8.57;3.67;;;11.40;99.90;;;;;;6129896;23;20021;-78
2022/11/08 08:20:33;;;;;;;9.45;3.72;;;11.40;99.90;;;;;;6129727;23;20017;-77
2022/11/08 08:22:59;;;;;;;13.10;4.57;;;11.40;99.90;;;;;;6129848;23;20048;-76
2022/11/08 08:25:26;;;;;;;7.88;3.83;;;11.50;99.90;;;;;;6129865;23;20044;-77
2022/11/08 08:27:54;;;;;;;11.95;3.63;;;11.50;99.90;;;;;;6129704;23;20025;-76
2022/11/08 08:30:21;;;;;;;8.20;3.85;;;11.50;99.90;;;;;;6129338;23;20019;-76
2022/11/08 08:32:47;;;;;;;13.15;4.97;;;11.60;99.90;;;;;;6155983;23;20052;-76
2022/11/08 08:35:13;;;;;;;12.27;4.22;;;11.60;99.90;;;;;;6155613;23;20025;-76
2022/11/08 08:37:39;;;;;;;9.85;3.67;;;11.60;99.90;;;;;;6155892;23;20021;-76
2022/11/08 08:40:06;;;;;;;11.98;5.18;;;11.70;99.90;;;;;;6129529;23;20025;-77
2022/11/08 08:42:33;;;;;;;11.85;4.47;;;11.70;99.90;;;;;;6129346;23;20349;-77
2022/11/08 08:44:59;;;;;;;11.80;3.92;;;11.70;99.90;;;;;;6129645;23;20017;-76
2022/11/08 08:47:24;;;;;;;10.75;4.07;;;11.80;99.90;;;;;;6156075;23;20018;-76
2022/11/08 08:49:50;;;;;;;8.70;4.35;;;11.90;99.90;;;;;;6129716;23;20041;-77
2022/11/08 08:52:16;;;;;;;10.07;4.30;;;11.90;99.90;;;;;;6158060;23;20026;-76
2022/11/08 08:54:41;;;;;;;13.07;3.90;;;11.90;99.90;;;;;;6131763;23;20014;-76
2022/11/08 08:57:07;;;;;;;9.52;3.95;;;12.00;99.90;;;;;;6131448;23;20020;-76
2022/11/08 08:59:33;;;;;;;10.40;4.53;;;12.00;99.90;;;;;;6157805;23;20026;-77
2022/11/08 09:01:59;;;;;;;13.23;5.25;;;12.00;99.90;;;;;;6131680;23;20021;-77
2022/11/08 09:04:26;;;;;;;12.10;4.55;;;12.00;99.90;;;;;;6131560;23;20061;-77
2022/11/08 09:06:52;;;;;;;9.63;4.40;;;12.00;99.90;;;;;;6158074;23;20028;-77
2022/11/08 09:09:17;;;;;;;9.75;4.18;;;12.10;99.90;;;;;;6131652;23;20017;-78
2022/11/08 09:11:43;;;;;;;7.03;3.42;;;12.10;99.90;;;;;;6131252;23;20018;-77
2022/11/08 09:14:09;;;;;;;9.60;4.15;;;12.20;99.90;;;;;;6157953;23;20438;-79
2022/11/08 09:16:34;;;;;;;7.85;4.22;;;12.20;99.90;;;;;;6131428;23;20017;-77
2022/11/08 09:19:00;;;;;;;7.85;3.75;;;12.20;99.90;;;;;;6131438;23;20017;-77
2022/11/08 09:21:26;;;;;;;9.48;4.53;;;12.20;99.90;;;;;;6157860;23;20382;-77
2022/11/08 09:23:51;;;;;;;9.10;4.32;;;12.20;99.90;;;;;;6131502;23;20013;-77
2022/11/08 09:26:17;;;;;;;8.13;3.60;;;12.30;99.90;;;;;;6131668;23;20021;-77
2022/11/08 09:28:43;;;;;;;11.00;3.85;;;12.30;99.90;;;;;;6157901;23;20036;-77
2022/11/08 09:31:10;;;;;;;9.52;3.60;;;12.30;99.90;;;;;;6131447;23;20053;-77
2022/11/08 09:33:38;;;;;;;7.47;3.95;;;12.40;99.90;;;;;;6131442;23;20108;-77
2022/11/08 09:36:04;;;;;;;8.00;3.25;;;12.40;99.90;;;;;;6131327;23;20013;-76
2022/11/08 09:38:31;;;;;;;8.95;3.42;;;12.50;99.90;;;;;;6131284;23;20504;-76
2022/11/08 09:41:17;;;;;;;7.60;3.67;;;12.50;99.90;;;;;;6157841;23;20018;-76
2022/11/08 09:44:04;;;;;;;7.85;3.63;;;12.50;99.90;;;;;;6131138;23;20025;-76
2022/11/08 09:46:48;;;;;;;9.38;3.47;;;12.60;99.90;;;;;;6131377;23;20018;-76
2022/11/08 09:49:30;;;;;;;8.30;3.60;;;12.60;99.90;;;;;;6131280;23;20346;-77
2022/11/08 09:51:57;;;;;;;6.60;3.20;;;12.60;99.90;;;;;;6131220;23;20350;-76
2022/11/08 09:54:28;;;;;;;7.80;3.35;;;12.70;99.90;;;;;;6157243;23;20152;-76
2022/11/08 09:56:56;;;;;;;6.57;3.03;;;12.70;99.90;;;;;;6157715;23;20014;-76
2022/11/08 09:59:22;;;;;;;8.20;2.75;;;12.70;99.90;;;;;;6157532;23;20078;-76
2022/11/08 10:01:48;;;;;;;6.82;3.28;;;12.70;99.90;;;;;;6157309;23;20021;-76
2022/11/08 10:04:17;;;;;;;6.07;2.78;;;12.70;99.90;;;;;;6131227;23;20029;-75
2022/11/08 10:07:08;;;;;;;9.63;3.40;;;12.70;99.90;;;;;;6131018;23;20049;-76
2022/11/08 10:09:56;;;;;;;6.32;3.03;;;12.70;99.90;;;;;;6131513;23;20022;-76
2022/11/08 10:12:44;;;;;;;8.57;2.85;;;12.80;99.90;;;;;;6157137;23;20093;-76
2022/11/08 10:15:19;;;;;;;8.13;2.75;;;12.70;99.90;;;;;;6115713;23;20429;-76
2022/11/08 10:18:11;;;;;;;5.88;2.70;;;12.80;99.90;;;;;;6131165;23;20096;-76
2022/11/08 10:21:04;;;;;;;6.68;3.03;;;12.80;99.90;;;;;;6116796;23;20370;-76
2022/11/08 10:23:47;;;;;;;7.28;2.90;;;12.80;99.90;;;;;;6130976;23;20013;-76
2022/11/08 10:26:18;;;;;;;5.60;2.47;;;12.80;99.90;;;;;;6130764;23;20017;-76
2022/11/08 10:28:49;;;;;;;8.25;3.08;;;12.70;99.90;;;;;;6130970;23;20009;-76
2022/11/08 10:31:17;;;;;;;8.77;3.25;;;12.80;99.90;;;;;;6130832;23;20013;-76
2022/11/08 10:33:54;;;;;;;5.68;3.08;;;12.80;99.90;;;;;;6157208;23;20160;-76
2022/11/08 10:36:19;;;;;;;5.38;2.90;;;12.80;99.90;;;;;;6157196;23;20010;-76
2022/11/08 10:39:00;;;;;;;14.20;3.38;;;12.70;99.90;;;;;;6157233;23;20105;-76
2022/11/08 10:41:39;;;;;;;7.07;3.00;;;12.70;99.90;;;;;;6157259;23;20021;-76
2022/11/08 10:44:25;;;;;;;6.82;2.80;;;12.70;99.90;;;;;;6157197;23;20017;-78
2022/11/08 10:46:59;;;;;;;8.85;3.47;;;12.70;99.90;;;;;;6157174;23;20009;-78
2022/11/08 10:49:54;;;;;;;6.07;2.70;;;12.60;99.90;;;;;;6130796;23;20013;-78
2022/11/08 10:52:43;;;;;;;6.93;3.20;;;12.60;99.90;;;;;;6106419;23;20014;-77
2022/11/08 10:55:35;;;;;;;5.10;2.67;;;12.60;99.90;;;;;;6130702;23;20469;-77
2022/11/08 10:58:01;;;;;;;6.57;2.65;;;12.60;99.90;;;;;;6130700;23;20023;-76
2022/11/08 11:00:33;;;;;;;7.90;3.10;;;12.70;99.90;;;;;;6157060;23;20076;-78
2022/11/08 11:03:09;;;;;;;9.25;3.08;;;12.70;99.90;;;;;;6156862;23;20018;-79
2022/11/08 11:05:39;;;;;;;6.47;2.65;;;12.60;99.90;;;;;;6157048;23;20025;-77
2022/11/08 11:08:07;;;;;;;6.63;2.70;;;12.70;99.90;;;;;;6156790;23;20014;-76
2022/11/08 11:10:45;;;;;;;7.22;3.33;;;12.70;99.90;;;;;;6156852;23;20018;-77
2022/11/08 11:13:22;;;;;;;6.80;2.70;;;12.70;99.90;;;;;;6129853;23;20037;-77
2022/11/08 11:16:04;;;;;;;6.78;2.53;;;12.70;99.90;;;;;;6130577;23;20461;-79
2022/11/08 11:18:34;;;;;;;17.90;5.68;;;12.80;99.90;;;;;;6156604;23;20450;-79
2022/11/08 11:21:03;;;;;;;11.73;4.45;;;12.80;99.90;;;;;;6130452;23;20021;-77
2022/11/08 11:23:46;;;;;;;6.22;2.90;;;12.80;99.90;;;;;;6156500;23;20058;-79
2022/11/08 11:26:30;;;;;;;8.05;4.22;;;12.90;99.90;;;;;;6156508;23;20028;-76
2022/11/08 11:29:05;;;;;;;11.43;4.05;;;12.90;99.90;;;;;;6130329;23;20071;-76
2022/11/08 11:31:34;;;;;;;7.05;4.05;;;12.90;99.90;;;;;;6129697;23;20022;-76
2022/11/08 11:34:18;;;;;;;10.02;4.05;;;13.00;99.90;;;;;;6130159;23;20018;-76
2022/11/08 11:37:04;;;;;;;9.20;4.05;;;13.10;99.90;;;;;;6156489;23;20454;-76
2022/11/08 11:39:43;;;;;;;9.85;3.15;;;13.10;99.90;;;;;;6130253;23;20017;-76
2022/11/08 11:42:32;;;;;;;7.00;3.33;;;13.10;99.90;;;;;;6130237;23;20048;-76
2022/11/08 11:45:01;;;;;;;7.30;3.10;;;13.10;99.90;;;;;;6130210;23;20021;-76
2022/11/08 11:47:46;;;;;;;8.75;2.97;;;13.20;99.90;;;;;;6130159;23;20025;-76
2022/11/08 11:50:36;;;;;;;11.65;7.30;;;13.20;99.90;;;;;;6156537;23;20014;-76
2022/11/08 11:53:16;;;;;;;4.93;2.75;;;13.30;99.90;;;;;;6148954;23;20370;-76
2022/11/08 11:56:06;;;;;;;8.90;4.60;;;13.30;99.90;;;;;;6134798;23;20021;-77
2022/11/08 11:58:53;;;;;;;7.03;3.78;;;13.40;99.90;;;;;;6116150;23;20071;-76
2022/11/08 12:01:59;;;;;;;7.25;3.15;;;13.40;99.90;;;;;;6126268;23;20029;-76
2022/11/08 12:04:41;;;;;;;6.68;3.00;;;13.50;99.90;;;;;;6156048;23;20350;-76
2022/11/08 12:07:18;;;;;;;7.03;2.58;;;13.50;99.90;;;;;;6156138;23;20081;-77
2022/11/08 12:10:09;;;;;;;5.28;2.60;;;13.60;99.90;;;;;;6129736;23;20335;-77
2022/11/08 12:13:07;;;;;;;5.47;2.47;;;13.70;99.90;;;;;;6129887;23;20446;-76
2022/11/08 12:15:49;;;;;;;5.40;2.25;;;13.70;99.90;;;;;;6130016;23;20021;-76
2022/11/08 12:18:38;;;;;;;5.85;2.58;;;13.80;99.90;;;;;;6156214;23;20021;-77
2022/11/08 12:21:20;;;;;;;5.88;2.70;;;13.80;99.90;;;;;;6129896;23;20018;-77
2022/11/08 12:24:02;;;;;;;7.43;2.38;;;13.80;99.90;;;;;;6129910;23;20020;-76
2022/11/08 12:26:59;;;;;;;6.28;2.55;;;13.90;99.90;;;;;;6129471;23;20017;-77
2022/11/08 12:29:57;;;;;;;5.43;2.67;;;13.90;99.90;;;;;;6129845;23;20103;-76
2022/11/08 12:33:16;;;;;;;6.85;2.67;;;14.00;99.90;;;;;;6155775;23;20121;-76
2022/11/08 12:36:15;;;;;;;7.50;2.65;;;14.00;99.90;;;;;;6013276;23;20030;-76
2022/11/08 12:39:00;;;;;;;4.88;2.20;;;14.00;99.90;;;;;;6156125;23;20017;-76
2022/11/08 12:41:37;;;;;;;4.68;2.05;;;14.00;99.90;;;;;;6129736;23;20025;-77
2022/11/08 12:44:36;;;;;;;6.15;2.50;;;14.00;99.90;;;;;;6129898;23;20049;-76
2022/11/08 12:47:05;;;;;;;7.18;2.40;;;14.10;99.90;;;;;;6129579;23;20107;-76
2022/11/08 12:50:01;;;;;;;7.65;2.38;;;14.10;99.90;;;;;;6129714;23;20022;-76
2022/11/08 12:52:41;;;;;;;6.50;2.00;;;14.20;99.90;;;;;;6129544;23;20446;-77
2022/11/08 12:55:31;;;;;;;6.40;3.00;;;14.10;99.90;;;;;;6129614;23;20526;-76
2022/11/08 12:57:59;;;;;;;4.72;2.03;;;14.10;99.90;;;;;;6129754;23;20096;-76
2022/11/08 13:00:27;;;;;;;5.93;2.33;;;14.20;99.90;;;;;;6129382;23;20049;-76
2022/11/08 13:03:01;;;;;;;5.53;2.50;;;14.20;99.90;;;;;;6156073;23;20104;-76
2022/11/08 13:05:39;;;;;;;7.35;3.00;;;14.20;99.90;;;;;;6120478;23;20021;-75
2022/11/08 13:08:18;;;;;;;5.07;2.33;;;14.20;99.90;;;;;;6129501;23;20315;-76
2022/11/08 13:11:01;;;;;;;5.63;2.47;;;14.20;99.90;;;;;;6155906;23;20021;-76
2022/11/08 13:13:48;;;;;;;7.55;2.33;;;14.30;99.90;;;;;;6155630;23;20087;-76
2022/11/08 13:16:20;;;;;;;6.90;2.38;;;14.20;99.90;;;;;;6129625;23;20541;-76
2022/11/08 13:18:57;;;;;;;4.70;2.72;;;14.20;99.90;;;;;;6155936;23;20100;-77
2022/11/08 13:21:37;;;;;;;6.55;2.50;;;14.30;99.90;;;;;;6129431;23;20460;-76
2022/11/08 13:24:06;;;;;;;5.88;2.70;;;14.20;99.90;;;;;;6129716;23;20026;-76
2022/11/08 13:26:36;;;;;;;7.97;2.40;;;14.30;99.90;;;;;;6116825;23;20109;-76
2022/11/08 13:29:26;;;;;;;5.93;2.55;;;14.30;99.90;;;;;;6128598;23;20021;-76
2022/11/08 13:31:57;;;;;;;6.13;3.17;;;14.30;99.90;;;;;;6155578;23;20041;-76
2022/11/08 13:34:28;;;;;;;8.38;3.38;;;14.30;99.90;;;;;;6155884;23;20059;-77
2022/11/08 13:37:06;;;;;;;8.20;3.90;;;14.30;99.90;;;;;;6156744;23;20037;-76
2022/11/08 13:39:49;;;;;;;6.57;3.15;;;14.30;99.90;;;;;;6157567;23;20041;-76
2022/11/08 13:42:14;;;;;;;8.65;3.28;;;14.20;99.90;;;;;;6157333;23;20018;-76
2022/11/08 13:44:58;;;;;;;9.05;3.63;;;14.10;99.90;;;;;;6131316;23;20028;-76
2022/11/08 13:47:33;;;;;;;6.53;2.88;;;14.10;99.90;;;;;;6130715;23;20025;-76
2022/11/08 13:50:27;;;;;;;6.38;2.33;;;14.10;99.90;;;;;;6131120;23;20009;-76